地図

経路データ

SID SEASON NUMBER BASIN SUBBASIN NAME ISO_TIME NATURE LAT LON WMO_WIND WMO_PRES WMO_AGENCY TRACK_TYPE DIST2LAND LANDFALL IFLAG USA_AGENCY USA_ATCF_ID USA_LAT USA_LON USA_RECORD USA_STATUS USA_WIND USA_PRES USA_SSHS USA_R34_NE USA_R34_SE USA_R34_SW USA_R34_NW USA_R50_NE USA_R50_SE USA_R50_SW USA_R50_NW USA_R64_NE USA_R64_SE USA_R64_SW USA_R64_NW USA_POCI USA_ROCI USA_RMW USA_EYE TOKYO_LAT TOKYO_LON TOKYO_GRADE TOKYO_WIND TOKYO_PRES TOKYO_R50_DIR TOKYO_R50_LONG TOKYO_R50_SHORT TOKYO_R30_DIR TOKYO_R30_LONG TOKYO_R30_SHORT TOKYO_LAND CMA_LAT CMA_LON CMA_CAT CMA_WIND CMA_PRES HKO_LAT HKO_LON HKO_CAT HKO_WIND HKO_PRES NEWDELHI_LAT NEWDELHI_LON NEWDELHI_GRADE NEWDELHI_WIND NEWDELHI_PRES NEWDELHI_CI NEWDELHI_DP NEWDELHI_POCI REUNION_LAT REUNION_LON REUNION_TYPE REUNION_WIND REUNION_PRES REUNION_TNUM REUNION_CI REUNION_RMW REUNION_R34_NE REUNION_R34_SE REUNION_R34_SW REUNION_R34_NW REUNION_R50_NE REUNION_R50_SE REUNION_R50_SW REUNION_R50_NW REUNION_R64_NE REUNION_R64_SE REUNION_R64_SW REUNION_R64_NW BOM_LAT BOM_LON BOM_TYPE BOM_WIND BOM_PRES BOM_TNUM BOM_CI BOM_RMW BOM_R34_NE BOM_R34_SE BOM_R34_SW BOM_R34_NW BOM_R50_NE BOM_R50_SE BOM_R50_SW BOM_R50_NW BOM_R64_NE BOM_R64_SE BOM_R64_SW BOM_R64_NW BOM_ROCI BOM_POCI BOM_EYE BOM_POS_METHOD BOM_PRES_METHOD NADI_LAT NADI_LON NADI_CAT NADI_WIND NADI_PRES WELLINGTON_LAT WELLINGTON_LON WELLINGTON_WIND WELLINGTON_PRES DS824_LAT DS824_LON DS824_STAGE DS824_WIND DS824_PRES TD9636_LAT TD9636_LON TD9636_STAGE TD9636_WIND TD9636_PRES TD9635_LAT TD9635_LON TD9635_WIND TD9635_PRES TD9635_ROCI NEUMANN_LAT NEUMANN_LON NEUMANN_CLASS NEUMANN_WIND NEUMANN_PRES MLC_LAT MLC_LON MLC_CLASS MLC_WIND MLC_PRES USA_GUST BOM_GUST BOM_GUST_PER REUNION_GUST REUNION_GUST_PER USA_SEAHGT USA_SEARAD_NE USA_SEARAD_SE USA_SEARAD_SW USA_SEARAD_NW STORM_SPEED STORM_DIR
1938188N14117 1938 29 WP MM NOT_NAMED 1938-07-07 10:00:00 NR 13.5000 116.500 main 407 407 __________O___ -1 13.5000 116.500 4 8 287
1938188N14117 1938 29 WP MM NOT_NAMED 1938-07-07 12:00:00 NR 13.5803 116.236 main 439 439 __________P___ -1 13.5803 116.236 4 8 287
1938188N14117 1938 29 WP MM NOT_NAMED 1938-07-07 15:00:00 NR 13.7017 115.833 main 479 479 __________P___ -1 13.7017 115.833 4 8 287
1938188N14117 1938 29 WP MM NOT_NAMED 1938-07-07 18:00:00 NR 13.8260 115.411 main 516 516 __________P___ -1 13.8260 115.411 4 9 287
1938188N14117 1938 29 WP MM NOT_NAMED 1938-07-07 21:00:00 NR 13.9554 114.959 main 550 560 __________P___ -1 13.9554 114.959 4 9 286
1938188N14117 1938 29 WP MM NOT_NAMED 1938-07-07 22:00:00 NR 14.0000 114.800 main 570 557 __________O___ -1 14.0000 114.800 4 10 286
1938188N14117 1938 29 WP MM NOT_NAMED 1938-07-08 00:00:00 NR 14.0922 114.467 main 557 497 __________P___ -1 14.0922 114.467 4 10 286
1938188N14117 1938 29 WP MM NOT_NAMED 1938-07-08 03:00:00 NR 14.2428 113.943 main 497 445 __________P___ -1 14.2428 113.943 4 11 287
1938188N14117 1938 29 WP MM NOT_NAMED 1938-07-08 06:00:00 NR 14.4164 113.405 main 445 396 __________P___ -1 14.4164 113.405 4 11 290
1938188N14117 1938 29 WP MM NOT_NAMED 1938-07-08 09:00:00 NR 14.6224 112.873 main 396 377 __________P___ -1 14.6224 112.873 4 11 293
1938188N14117 1938 29 WP MM NOT_NAMED 1938-07-08 10:00:00 NR 14.7000 112.700 main 377 348 __________O___ -1 14.7000 112.700 4 11 296
1938188N14117 1938 29 WP MM NOT_NAMED 1938-07-08 12:00:00 NR 14.8607 112.369 main 352 304 __________P___ -1 14.8607 112.369 4 11 299
1938188N14117 1938 29 WP MM NOT_NAMED 1938-07-08 15:00:00 NR 15.1332 111.885 main 304 259 __________P___ -1 15.1332 111.885 4 11 302
1938188N14117 1938 29 WP MM NOT_NAMED 1938-07-08 18:00:00 NR 15.4408 111.414 main 259 232 __________P___ -1 15.4408 111.414 4 11 306
1938188N14117 1938 29 WP MM NOT_NAMED 1938-07-08 21:00:00 NR 15.7803 110.952 main 234 218 __________P___ -1 15.7803 110.952 4 11 308
1938188N14117 1938 29 WP MM NOT_NAMED 1938-07-08 22:00:00 NR 15.9000 110.800 main 218 189 __________O___ -1 15.9000 110.800 4 12 305
1938188N14117 1938 29 WP MM NOT_NAMED 1938-07-09 00:00:00 NR 16.1205 110.447 main 189 177 __________P___ -1 16.1205 110.447 4 12 304
1938188N14117 1938 29 WP MM NOT_NAMED 1938-07-09 03:00:00 NR 16.4759 109.924 main 177 145 __________P___ -1 16.4759 109.924 4 12 308
1938188N14117 1938 29 WP MM NOT_NAMED 1938-07-09 06:00:00 NR 16.8745 109.453 main 145 109 __________P___ -1 16.8745 109.453 4 12 317
1938188N14117 1938 29 WP MM NOT_NAMED 1938-07-09 09:00:00 NR 17.3318 109.089 main 109 94 __________P___ -1 17.3318 109.089 4 11 325
1938188N14117 1938 29 WP MM NOT_NAMED 1938-07-09 10:00:00 NR 17.5000 109.000 main 94 56 __________O___ -1 17.5000 109.000 4 12 337
1938188N14117 1938 29 WP MM NOT_NAMED 1938-07-09 12:00:00 NR 17.8907 108.845 main 59 0 __________P___ -1 17.8907 108.845 4 13 346
1938188N14117 1938 29 WP MM NOT_NAMED 1938-07-09 15:00:00 NR 18.5346 108.725 main 0 0 __________P___ -1 18.5346 108.725 4 13 356
1938188N14117 1938 29 WP MM NOT_NAMED 1938-07-09 18:00:00 NR 19.1953 108.745 main 0 0 __________P___ -1 19.1953 108.745 4 13 8
1938188N14117 1938 29 WP MM NOT_NAMED 1938-07-09 21:00:00 NR 19.8136 108.911 main 30 30 __________P___ -1 19.8136 108.911 4 13 17
1938188N14117 1938 29 WP MM NOT_NAMED 1938-07-09 22:00:00 NR 20.0000 109.000 main 38 38 __________O___ -1 20.0000 109.000 4 11 35
1938188N14117 1938 29 WP MM NOT_NAMED 1938-07-10 00:00:00 NR 20.2820 109.258 main 49 0 __________P___ -1 20.2820 109.258 4 12 48
1938188N14117 1938 29 WP MM NOT_NAMED 1938-07-10 03:00:00 NR 20.6410 109.772 main 0 0 __________P___ -1 20.6410 109.772 4 12 56
1938188N14117 1938 29 WP MM NOT_NAMED 1938-07-10 06:00:00 NR 20.9776 110.342 main 10 0 __________P___ -1 20.9776 110.342 4 12 55
1938188N14117 1938 29 WP MM NOT_NAMED 1938-07-10 09:00:00 NR 21.3544 110.859 main 10 0 __________P___ -1 21.3544 110.859 4 12 50
1938188N14117 1938 29 WP MM NOT_NAMED 1938-07-10 10:00:00 NR 21.5000 111.000 main 0 0 __________O___ -1 21.5000 111.000 4 12 35
1938188N14117 1938 29 WP MM NOT_NAMED 1938-07-10 12:00:00 NR 21.8307 111.220 main 0 0 __________P___ -1 21.8307 111.220 4 12 23
1938188N14117 1938 29 WP MM NOT_NAMED 1938-07-10 15:00:00 NR 22.4116 111.415 main 0 0 __________P___ -1 22.4116 111.415 4 13 12
1938188N14117 1938 29 WP MM NOT_NAMED 1938-07-10 18:00:00 NR 23.0665 111.493 main 0 0 __________P___ -1 23.0665 111.493 4 14 3
1938188N14117 1938 29 WP MM NOT_NAMED 1938-07-10 21:00:00 NR 23.7637 111.503 main 0 0 __________P___ -1 23.7637 111.503 4 14 1
1938188N14117 1938 29 WP MM NOT_NAMED 1938-07-10 22:00:00 NR 24.0000 111.500 main 0 __________O___ -1 24.0000 111.500 4 14 355

デジタル台風データ・検索

IBTrACS Databaseについて

本データベースは、米国NOAAが公開する1842年以降の世界の熱帯低気圧のベストトラックデータアーカイブInternational Best Track Archive for Climate Stewardship (IBTrACS)を、ウェブで閲覧しやすい形式に変換したものです。

最終更新日:2021-10-19